CDT,Max TemperatureF,Mean TemperatureF,Min TemperatureF,Max Dew PointF,MeanDew PointF,Min DewpointF,Max Humidity, Mean Humidity, Min Humidity, Max Sea Level PressureIn, Mean Sea Level PressureIn, Min Sea Level PressureIn, Max VisibilityMiles, Mean VisibilityMiles, Min VisibilityMiles, Max Wind SpeedMPH, Mean Wind SpeedMPH, Max Gust SpeedMPH,PrecipitationIn, CloudCover, Events, WindDirDegrees
2012-8-1,99,85,70,69,62,48,90,54,18,29.92,29.88,29.83,10,9,6,16,5,21,0.00,0,,32
2012-8-2,99,83,66,72,66,59,93,62,31,29.91,29.84,29.72,10,8,1,24,7,41,2.31,4,Rain-Thunderstorm,96
2012-8-3,92,82,71,74,72,69,93,75,56,29.89,29.85,29.81,10,10,8,10,4,16,T,5,Rain,128
2012-8-4,91,85,78,76,73,69,91,72,52,29.99,29.92,29.86,10,10,10,21,7,28,0.00,1,,188
2012-8-5,89,81,73,74,70,60,93,72,50,30.11,30.05,29.97,10,10,2,26,6,36,0.41,4,Rain-Thunderstorm,244
2012-8-6,92,80,67,64,61,57,84,58,32,30.13,30.07,30.00,10,10,10,9,2,13,0.00,0,,28
2012-8-7,94,79,63,65,59,53,93,60,26,30.02,29.98,29.94,10,10,10,9,1,12,0.00,0,,295
2012-8-8,97,82,66,67,63,58,87,57,27,30.01,29.95,29.88,10,10,10,9,3,13,0.00,0,,177
2012-8-9,93,82,71,69,67,63,84,64,44,29.90,29.83,29.74,10,10,9,17,5,22,T,1,Rain,138
2012-8-10,81,73,65,68,61,56,90,68,45,29.94,29.85,29.74,10,10,8,16,7,22,0.00,4,,337
2012-8-11,84,71,57,57,52,47,86,57,28,30.03,29.99,29.96,10,10,10,13,3,23,0.00,0,,346
2012-8-12,87,71,55,59,54,50,87,59,31,30.06,30.02,29.98,10,10,10,12,3,14,0.00,0,,251
2012-8-13,77,70,63,68,62,56,93,77,61,30.03,29.94,29.88,10,9,2,23,5,29,0.45,6,Rain-Thunderstorm,145
2012-8-14,78,72,66,67,64,60,93,77,60,29.98,29.93,29.88,10,7,1,13,4,16,0.00,6,,323
2012-8-15,89,75,60,62,59,55,97,66,35,30.02,29.98,29.94,10,8,1,8,2,14,0.00,0,,93
2012-8-16,91,77,63,70,65,60,93,73,52,30.01,29.96,29.82,10,8,1,28,7,38,0.80,3,Rain-Thunderstorm,155
2012-8-17,82,71,60,68,61,53,97,68,39,30.01,29.96,29.93,10,9,6,14,6,22,0.00,5,,317
2012-8-18,83,70,56,58,54,50,93,64,35,30.02,29.96,29.90,10,10,10,10,3,13,0.00,1,,27
2012-8-19,83,71,58,55,52,48,80,57,33,29.95,29.92,29.90,10,10,10,14,4,18,0.00,1,,360
2012-8-20,85,70,55,58,53,50,93,63,33,30.00,29.97,29.94,10,10,10,10,2,15,0.00,1,,332
2012-8-21,85,71,56,60,56,53,93,65,37,30.08,30.04,29.99,10,10,10,13,2,15,T,2,,10
2012-8-22,89,74,59,61,57,55,90,62,34,30.12,30.07,30.02,10,10,7,10,3,15,0.00,0,,83
2012-8-23,92,77,62,63,59,57,84,59,34,30.10,30.06,30.01,10,10,10,12,4,16,0.00,0,,95
2012-8-24,93,78,62,63,60,56,90,60,30,30.08,30.03,29.99,10,10,10,13,3,16,0.00,0,,189
2012-8-25,93,79,65,66,63,60,87,62,36,30.10,30.05,30.00,10,10,7,17,5,23,0.00,1,,159
2012-8-26,89,78,66,70,67,64,93,70,46,30.13,30.06,29.99,10,9,6,16,6,22,0.00,3,,192
2012-8-27,85,78,71,72,70,67,93,79,65,30.07,30.03,29.98,10,8,1,20,4,23,0.13,5,Rain,257
2012-8-28,92,79,65,67,58,51,87,57,26,30.10,30.04,29.98,10,10,2,16,7,22,0.00,0,,27
2012-8-29,93,78,62,60,56,52,78,52,26,30.06,30.01,29.94,10,10,10,13,5,21,0.00,0,,59
2012-8-30,96,79,62,71,62,57,78,54,30,30.06,30.01,29.97,10,10,10,13,5,18,0.00,0,,111
2012-8-31,92,85,78,72,70,69,74,63,52,30.13,30.06,29.99,10,10,10,15,8,22,T,2,,156